createdAt,value
2023-06-10T00:01:14.521Z,15.57
2023-06-10T00:03:44.672Z,16.53
2023-06-10T00:06:12.927Z,16.93
2023-06-10T00:08:41.211Z,16.87
2023-06-10T00:11:09.352Z,17.30
2023-06-10T00:13:39.349Z,16.93
2023-06-10T00:16:07.572Z,17.27
2023-06-10T00:18:38.095Z,15.57
2023-06-10T00:21:06.873Z,16.00
2023-06-10T00:23:38.665Z,16.77
2023-06-10T00:26:07.403Z,15.87
2023-06-10T00:28:35.689Z,15.97
2023-06-10T00:31:06.266Z,16.47
2023-06-10T00:33:34.412Z,15.90
2023-06-10T00:36:02.617Z,15.53
2023-06-10T00:38:30.861Z,16.53
2023-06-10T00:40:58.996Z,17.17
2023-06-10T00:43:27.138Z,16.47
2023-06-10T00:45:55.284Z,15.57
2023-06-10T00:48:24.844Z,14.53
2023-06-10T00:50:53.041Z,16.23
2023-06-10T00:53:21.978Z,16.40
2023-06-10T00:55:50.064Z,17.83
2023-06-10T00:58:18.196Z,15.50
2023-06-10T01:00:47.943Z,15.07
2023-06-10T01:03:18.597Z,15.30
2023-06-10T01:05:50.461Z,14.43
2023-06-10T01:08:22.251Z,15.00
2023-06-10T01:10:52.493Z,15.23
2023-06-10T01:13:21.682Z,14.13
2023-06-10T01:15:49.924Z,15.87
2023-06-10T01:18:18.315Z,15.27
2023-06-10T01:20:51.475Z,13.73
2023-06-10T01:23:21.536Z,14.83
2023-06-10T01:25:52.252Z,14.97
2023-06-10T01:28:22.541Z,15.77
2023-06-10T01:30:54.305Z,15.40
2023-06-10T01:33:26.514Z,14.47
2023-06-10T01:35:54.858Z,13.90
2023-06-10T01:38:24.372Z,15.57
2023-06-10T01:40:52.510Z,14.07
2023-06-10T01:43:20.743Z,15.37
2023-06-10T01:45:48.899Z,14.43
2023-06-10T01:48:17.091Z,14.20
2023-06-10T01:50:45.387Z,14.93
2023-06-10T01:53:13.509Z,14.40
2023-06-10T01:55:43.066Z,15.40
2023-06-10T01:58:11.277Z,15.53
2023-06-10T02:00:39.481Z,14.70
2023-06-10T02:03:07.704Z,15.63
2023-06-10T02:05:35.950Z,16.13
2023-06-10T02:08:04.041Z,14.93
2023-06-10T02:10:32.176Z,16.13
2023-06-10T02:13:01.763Z,14.83
2023-06-10T02:15:29.873Z,16.27
2023-06-10T02:17:59.164Z,15.00
2023-06-10T02:20:27.297Z,15.93
2023-06-10T02:22:55.463Z,15.47
2023-06-10T02:25:23.549Z,15.27
2023-06-10T02:27:51.696Z,16.17
2023-06-10T02:30:21.307Z,15.73
2023-06-10T02:32:49.925Z,16.20
2023-06-10T02:35:18.386Z,16.20
2023-06-10T02:37:46.507Z,17.43
2023-06-10T02:40:14.648Z,18.10
2023-06-10T02:42:42.823Z,16.73
2023-06-10T02:45:11.638Z,16.93
2023-06-10T02:47:41.886Z,17.87
2023-06-10T02:50:10.747Z,17.43
2023-06-10T02:52:38.923Z,16.63
2023-06-10T02:55:08.044Z,17.63
2023-06-10T02:57:36.358Z,16.70
2023-06-10T03:00:10.400Z,18.30
2023-06-10T03:02:39.906Z,16.23
2023-06-10T03:05:11.921Z,18.37
2023-06-10T03:07:40.386Z,20.30
2023-06-10T03:10:09.686Z,17.23
2023-06-10T03:12:37.786Z,18.27
2023-06-10T03:15:07.178Z,18.40
2023-06-10T03:17:35.790Z,19.60
2023-06-10T03:20:04.490Z,20.10
2023-06-10T03:22:33.972Z,18.30
2023-06-10T03:25:02.126Z,18.93
2023-06-10T03:27:30.576Z,20.70
2023-06-10T03:29:58.781Z,18.30
2023-06-10T03:32:27.031Z,18.17
2023-06-10T03:34:58.306Z,17.70
2023-06-10T03:37:26.595Z,19.20
2023-06-10T03:39:56.148Z,19.40
2023-06-10T03:42:24.358Z,19.90
2023-06-10T03:44:52.537Z,20.50
2023-06-10T03:47:20.661Z,18.63
2023-06-10T03:49:48.882Z,18.73
2023-06-10T03:52:17.008Z,18.67
2023-06-10T03:54:45.116Z,19.70
2023-06-10T03:57:14.648Z,18.80
2023-06-10T03:59:42.857Z,17.97
2023-06-10T04:02:11.237Z,19.10
2023-06-10T04:04:39.751Z,16.87
2023-06-10T04:07:09.301Z,18.40
2023-06-10T04:09:37.871Z,18.23
2023-06-10T04:12:07.449Z,19.07
2023-06-10T04:14:37.916Z,17.73
2023-06-10T04:17:08.108Z,17.30
2023-06-10T04:19:36.436Z,17.70
2023-06-10T04:22:05.035Z,17.20
2023-06-10T04:24:33.363Z,16.60
2023-06-10T04:27:01.629Z,16.07
2023-06-10T04:29:29.785Z,16.57
2023-06-10T04:31:59.908Z,16.03
2023-06-10T04:34:28.503Z,16.77
2023-06-10T04:36:56.647Z,15.67
2023-06-10T04:39:25.331Z,14.53
2023-06-10T04:41:53.529Z,15.03
2023-06-10T04:44:22.409Z,16.27
2023-06-10T04:46:50.586Z,15.43
2023-06-10T04:49:20.173Z,15.67
2023-06-10T04:51:48.287Z,14.33
2023-06-10T04:54:17.078Z,14.60
2023-06-10T04:56:45.429Z,14.17
2023-06-10T04:59:15.609Z,13.40
2023-06-10T05:01:43.816Z,14.50
2023-06-10T05:04:12.029Z,15.07
2023-06-10T05:06:41.594Z,15.17
2023-06-10T05:09:09.719Z,13.83
2023-06-10T05:11:37.821Z,13.27
2023-06-10T05:14:06.411Z,14.43
2023-06-10T05:16:34.641Z,17.30
2023-06-10T05:19:03.832Z,14.77
2023-06-10T05:21:33.163Z,13.67
2023-06-10T05:24:03.386Z,13.50
2023-06-10T05:26:32.923Z,15.13
2023-06-10T05:29:01.099Z,13.53
2023-06-10T05:31:29.251Z,16.70
2023-06-10T05:33:57.592Z,12.60
2023-06-10T05:36:26.556Z,13.43
2023-06-10T05:38:54.712Z,10.30
2023-06-10T05:41:24.329Z,10.47
2023-06-10T05:43:52.427Z,10.77
2023-06-10T05:46:20.652Z,10.87
2023-06-10T05:48:48.837Z,10.13
2023-06-10T05:51:16.978Z,9.13
2023-06-10T05:53:47.421Z,9.83
2023-06-10T05:56:15.961Z,9.20
2023-06-10T05:58:45.524Z,8.87
2023-06-10T06:01:13.700Z,9.97
2023-06-10T06:03:42.068Z,11.17
2023-06-10T06:06:10.331Z,13.77
2023-06-10T06:08:38.530Z,8.97
2023-06-10T06:11:06.670Z,9.23
2023-06-10T06:13:34.819Z,10.53
2023-06-10T06:16:04.503Z,9.60
2023-06-10T06:18:32.648Z,10.73
2023-06-10T06:21:00.816Z,9.77
2023-06-10T06:23:28.968Z,10.20
2023-06-10T06:25:57.099Z,10.03
2023-06-10T06:28:30.205Z,9.87
2023-06-10T06:30:58.584Z,10.20
2023-06-10T06:33:28.542Z,10.47
2023-06-10T06:35:56.630Z,10.57
2023-06-10T06:38:24.839Z,13.83
2023-06-10T06:40:53.058Z,10.00
2023-06-10T06:43:21.248Z,11.90
2023-06-10T06:45:49.431Z,10.13
2023-06-10T06:48:17.682Z,11.47
2023-06-10T06:50:47.840Z,9.13
2023-06-10T06:53:16.080Z,10.37
2023-06-10T06:55:44.195Z,8.73
2023-06-10T06:58:12.360Z,10.07
2023-06-10T07:00:40.540Z,9.07
2023-06-10T07:03:08.740Z,13.53
2023-06-10T07:05:37.027Z,9.50
2023-06-10T07:08:06.969Z,9.93
2023-06-10T07:10:35.170Z,9.40
2023-06-10T07:13:04.332Z,9.83
2023-06-10T07:15:33.914Z,9.37
2023-06-10T07:18:02.178Z,9.50
2023-06-10T07:20:30.348Z,11.40
2023-06-10T07:22:58.554Z,11.07
2023-06-10T07:25:28.081Z,11.97
2023-06-10T07:27:56.224Z,9.60
2023-06-10T07:30:24.450Z,12.03
2023-06-10T07:32:53.567Z,10.63
2023-06-10T07:35:22.077Z,11.60
2023-06-10T07:37:50.224Z,12.70
2023-06-10T07:40:18.504Z,11.23
2023-06-10T07:42:48.002Z,10.90
2023-06-10T07:45:16.168Z,11.10
2023-06-10T07:47:45.055Z,9.67
2023-06-10T07:50:13.298Z,11.20
2023-06-10T07:52:41.436Z,10.97
2023-06-10T07:55:10.156Z,10.60
2023-06-10T07:57:39.738Z,12.40
2023-06-10T08:00:11.277Z,11.93
2023-06-10T08:02:39.854Z,11.37
2023-06-10T08:05:09.097Z,9.67
2023-06-10T08:07:37.528Z,9.77
2023-06-10T08:10:06.468Z,10.30
2023-06-10T08:12:34.733Z,9.77
2023-06-10T08:15:02.941Z,10.27
2023-06-10T08:17:32.781Z,8.87
2023-06-10T08:20:01.028Z,11.17
2023-06-10T08:22:30.525Z,9.53
2023-06-10T08:24:58.771Z,9.60
2023-06-10T08:27:27.185Z,10.30
2023-06-10T08:29:55.289Z,9.47
2023-06-10T08:32:23.558Z,9.93
2023-06-10T08:34:53.485Z,9.70
2023-06-10T08:37:21.656Z,9.90
2023-06-10T08:39:49.795Z,8.33
2023-06-10T08:42:21.977Z,9.60
2023-06-10T08:44:50.186Z,10.83
2023-06-10T08:47:19.090Z,10.10
2023-06-10T08:49:48.486Z,9.83
2023-06-10T08:52:18.986Z,9.17
2023-06-10T08:54:56.602Z,8.97
2023-06-10T08:57:24.755Z,9.07
2023-06-10T08:59:52.973Z,8.43
2023-06-10T09:02:21.650Z,9.60
2023-06-10T09:04:50.355Z,9.77
2023-06-10T09:07:19.888Z,9.30
2023-06-10T09:09:48.069Z,7.93
2023-06-10T09:12:16.485Z,8.67
2023-06-10T09:14:44.660Z,8.47
2023-06-10T09:17:12.931Z,8.13
2023-06-10T09:19:41.073Z,9.33
2023-06-10T09:22:09.232Z,8.73
2023-06-10T09:24:38.742Z,8.77
2023-06-10T09:27:07.554Z,10.37
2023-06-10T09:29:50.284Z,8.17
2023-06-10T09:32:19.407Z,9.53
2023-06-10T09:34:48.048Z,7.60
2023-06-10T09:37:16.871Z,7.33
2023-06-10T09:39:46.398Z,7.77
2023-06-10T09:42:19.651Z,8.33
2023-06-10T09:44:52.189Z,8.43
2023-06-10T09:47:23.655Z,8.67
2023-06-10T09:49:54.523Z,9.40
2023-06-10T09:52:25.098Z,8.87
2023-06-10T09:54:55.011Z,9.03
2023-06-10T09:57:23.737Z,7.37
2023-06-10T09:59:55.129Z,7.53
2023-06-10T10:02:23.285Z,8.33
2023-06-10T10:04:51.600Z,7.63
2023-06-10T10:07:19.911Z,6.67
2023-06-10T10:09:48.026Z,8.37
2023-06-10T10:12:18.301Z,5.03
2023-06-10T10:14:48.729Z,5.93
2023-06-10T10:17:17.613Z,5.97
2023-06-10T10:19:49.397Z,6.87
2023-06-10T10:22:20.720Z,6.90
2023-06-10T10:24:51.478Z,5.23
2023-06-10T10:27:24.938Z,7.50
2023-06-10T10:29:54.493Z,5.23
2023-06-10T10:32:23.832Z,4.97
2023-06-10T10:34:54.083Z,4.90
2023-06-10T10:37:22.535Z,5.10
2023-06-10T10:39:50.830Z,6.27
2023-06-10T10:42:19.024Z,4.80
2023-06-10T10:44:48.551Z,4.20
2023-06-10T10:47:16.870Z,4.43
2023-06-10T10:49:45.898Z,6.60
2023-06-10T10:52:14.323Z,4.53
2023-06-10T10:54:46.204Z,5.00
2023-06-10T10:57:16.019Z,4.47
2023-06-10T11:00:06.169Z,4.43
2023-06-10T11:02:39.971Z,5.38
2023-06-10T11:05:09.439Z,5.22
2023-06-10T11:07:38.464Z,10.98
2023-06-10T11:10:09.248Z,5.97
2023-06-10T11:12:53.629Z,5.05
2023-06-10T11:15:24.437Z,3.90
2023-06-10T11:18:23.548Z,10.65
2023-06-10T11:21:02.012Z,5.20
2023-06-10T11:23:43.683Z,6.97
2023-06-10T11:26:33.765Z,4.53
2023-06-10T11:29:10.242Z,4.57
2023-06-10T11:31:43.953Z,4.93
2023-06-10T11:34:12.159Z,6.38
2023-06-10T11:36:43.666Z,4.10
2023-06-10T11:39:12.094Z,5.55
2023-06-10T11:41:41.150Z,8.68
2023-06-10T11:44:12.563Z,4.32
2023-06-10T11:46:43.828Z,4.93
2023-06-10T11:49:12.098Z,4.38
2023-06-10T11:51:41.681Z,4.65
2023-06-10T11:54:11.060Z,6.05
2023-06-10T11:56:39.253Z,8.40
2023-06-10T11:59:08.806Z,5.88
2023-06-10T12:01:41.381Z,5.28
2023-06-10T12:04:13.889Z,4.88
2023-06-10T12:06:43.161Z,5.25
2023-06-10T12:09:25.353Z,4.80
2023-06-10T12:11:57.722Z,7.15
2023-06-10T12:14:56.086Z,6.55
2023-06-10T12:17:25.542Z,4.55
2023-06-10T12:19:55.078Z,5.07
2023-06-10T12:22:24.705Z,4.28
2023-06-10T12:25:03.890Z,5.47
2023-06-10T12:27:32.890Z,7.57
2023-06-10T12:30:04.802Z,5.30
2023-06-10T12:32:40.429Z,4.45
2023-06-10T12:35:11.103Z,4.20
2023-06-10T12:37:42.528Z,8.48
2023-06-10T12:40:12.694Z,3.92
2023-06-10T12:42:42.958Z,4.97
2023-06-10T12:45:13.465Z,4.35
2023-06-10T12:47:42.852Z,6.82
2023-06-10T12:50:14.090Z,6.55
2023-06-10T12:52:43.532Z,4.10
2023-06-10T12:55:12.193Z,4.85
2023-06-10T12:57:49.588Z,4.40
2023-06-10T13:00:19.151Z,6.80
2023-06-10T13:02:47.347Z,4.65
2023-06-10T13:05:17.942Z,33.70
2023-06-10T13:07:46.874Z,13.40
2023-06-10T13:10:15.807Z,8.82
2023-06-10T13:12:48.013Z,4.43
2023-06-10T13:15:17.177Z,3.60
2023-06-10T13:17:45.388Z,4.47
2023-06-10T13:20:13.758Z,4.43
2023-06-10T13:22:43.360Z,9.05
2023-06-10T13:25:12.696Z,5.22
2023-06-10T13:27:41.155Z,6.68
2023-06-10T13:30:10.442Z,5.20
2023-06-10T13:32:38.794Z,4.55
2023-06-10T13:35:08.682Z,4.97
2023-06-10T13:37:38.092Z,5.80
2023-06-10T13:40:10.876Z,7.35
2023-06-10T13:42:39.220Z,6.95
2023-06-10T13:45:09.202Z,8.80
2023-06-10T13:47:37.524Z,5.25
2023-06-10T13:50:06.292Z,4.57
2023-06-10T13:52:34.428Z,6.10
2023-06-10T13:55:02.620Z,5.45
2023-06-10T13:57:32.099Z,4.03
2023-06-10T14:00:00.950Z,4.75
2023-06-10T14:02:29.171Z,10.18
2023-06-10T14:04:57.329Z,7.78
2023-06-10T14:07:27.204Z,6.00
2023-06-10T14:09:55.343Z,6.18
2023-06-10T14:12:23.679Z,6.40
2023-06-10T14:14:53.178Z,5.78
2023-06-10T14:17:21.333Z,5.22
2023-06-10T14:19:49.484Z,4.68
2023-06-10T14:22:17.610Z,6.22
2023-06-10T14:24:45.824Z,5.25
2023-06-10T14:27:13.948Z,4.82
2023-06-10T14:29:42.514Z,3.70
2023-06-10T14:32:12.134Z,3.53
2023-06-10T14:34:40.534Z,9.32
2023-06-10T14:37:09.410Z,5.85
2023-06-10T14:39:37.776Z,5.05
2023-06-10T14:42:06.898Z,5.95
2023-06-10T14:44:35.123Z,3.50
2023-06-10T14:47:03.899Z,4.28
2023-06-10T14:49:33.468Z,4.15
2023-06-10T14:52:01.604Z,3.42
2023-06-10T14:54:29.784Z,4.03
2023-06-10T14:56:57.910Z,8.83
2023-06-10T14:59:26.073Z,5.17
2023-06-10T15:01:54.455Z,4.20
2023-06-10T15:04:24.541Z,5.87
2023-06-10T15:06:54.560Z,4.23
2023-06-10T15:09:22.755Z,5.50
2023-06-10T15:11:50.893Z,6.63
2023-06-10T15:14:19.097Z,7.57
2023-06-10T15:16:47.317Z,5.50
2023-06-10T15:19:15.554Z,6.00
2023-06-10T15:21:43.733Z,7.57
2023-06-10T15:24:13.373Z,8.93
2023-06-10T15:26:42.039Z,6.00
2023-06-10T15:29:10.574Z,8.00
2023-06-10T15:31:38.781Z,10.30
2023-06-10T15:34:08.129Z,7.47
2023-06-10T15:36:37.526Z,8.20
2023-06-10T15:39:07.804Z,7.63
2023-06-10T15:41:37.512Z,9.07
2023-06-10T15:44:06.147Z,9.33
2023-06-10T15:46:35.605Z,7.70
2023-06-10T15:49:03.939Z,7.83
2023-06-10T15:51:32.346Z,8.93
2023-06-10T15:54:00.484Z,7.83
2023-06-10T15:56:28.636Z,8.70
2023-06-10T15:58:58.240Z,8.77
2023-06-10T16:01:26.461Z,9.07
2023-06-10T16:03:54.803Z,8.40
2023-06-10T16:06:23.037Z,9.43
2023-06-10T16:08:51.826Z,9.20
2023-06-10T16:11:19.960Z,11.73
2023-06-10T16:13:48.109Z,14.57
2023-06-10T16:16:17.680Z,9.63
2023-06-10T16:18:46.241Z,14.10
2023-06-10T16:21:14.426Z,10.70
2023-06-10T16:23:42.559Z,10.03
2023-06-10T16:26:10.845Z,10.07
2023-06-10T16:28:39.113Z,9.10
2023-06-10T16:31:07.367Z,8.27
2023-06-10T16:33:37.495Z,8.10
2023-06-10T16:36:05.832Z,8.77
2023-06-10T16:38:33.970Z,8.40
2023-06-10T16:41:02.299Z,8.90
2023-06-10T16:43:30.597Z,8.67
2023-06-10T16:45:58.819Z,8.93
2023-06-10T16:48:26.961Z,7.60
2023-06-10T16:50:56.620Z,8.23
2023-06-10T16:53:24.774Z,8.30
2023-06-10T16:55:52.933Z,8.77
2023-06-10T16:58:21.137Z,9.03
2023-06-10T17:00:50.636Z,8.30
2023-06-10T17:03:18.847Z,6.90
2023-06-10T17:05:47.051Z,6.33
2023-06-10T17:08:16.602Z,5.77
2023-06-10T17:10:45.191Z,9.90
2023-06-10T17:13:13.316Z,7.83
2023-06-10T17:15:41.976Z,6.43
2023-06-10T17:18:10.488Z,6.30
2023-06-10T17:20:38.685Z,5.53
2023-06-10T17:23:08.828Z,5.70
2023-06-10T17:25:38.473Z,5.70
2023-06-10T17:28:06.720Z,5.40
2023-06-10T17:30:34.889Z,4.30
2023-06-10T17:33:03.117Z,5.10
2023-06-10T17:35:31.279Z,4.88
2023-06-10T17:37:59.433Z,4.83
2023-06-10T17:40:27.568Z,9.13
2023-06-10T17:42:57.179Z,14.87
2023-06-10T17:45:25.317Z,6.73
2023-06-10T17:47:53.438Z,5.47
2023-06-10T17:50:21.650Z,9.83
2023-06-10T17:52:49.780Z,12.30
2023-06-10T17:55:18.126Z,5.60
2023-06-10T17:57:46.453Z,8.03
2023-06-10T18:00:16.772Z,4.73
2023-06-10T18:02:45.018Z,22.13
2023-06-10T18:05:13.392Z,20.20
2023-06-10T18:07:43.102Z,4.87
2023-06-10T18:10:11.755Z,5.87
2023-06-10T18:12:39.953Z,3.57
2023-06-10T18:15:09.392Z,5.43
2023-06-10T18:17:39.181Z,8.70
2023-06-10T18:20:08.579Z,9.03
2023-06-10T18:22:36.791Z,15.57
2023-06-10T18:25:06.289Z,5.77
2023-06-10T18:27:34.698Z,4.47
2023-06-10T18:30:02.844Z,4.23
2023-06-10T18:32:31.818Z,3.70
2023-06-10T18:35:01.487Z,4.63
2023-06-10T18:37:29.637Z,5.80
2023-06-10T18:39:57.800Z,4.27
2023-06-10T18:42:26.095Z,3.43
2023-06-10T18:44:54.244Z,4.30
2023-06-10T18:47:22.503Z,7.33
2023-06-10T18:49:50.696Z,3.67
2023-06-10T18:52:20.192Z,4.40
2023-06-10T18:54:48.410Z,3.50
2023-06-10T18:57:16.566Z,3.97
2023-06-10T18:59:45.053Z,4.10
2023-06-10T19:02:13.264Z,3.73
2023-06-10T19:04:41.518Z,6.43
2023-06-10T19:07:09.672Z,4.60
2023-06-10T19:09:39.881Z,5.43
2023-06-10T19:12:09.452Z,3.77
2023-06-10T19:14:40.093Z,23.13
2023-06-10T19:17:09.764Z,46.20
2023-06-10T19:19:37.973Z,45.83
2023-06-10T19:22:06.859Z,33.47
2023-06-10T19:24:34.990Z,10.40
2023-06-10T19:27:04.707Z,6.97
2023-06-10T19:29:32.859Z,6.50
2023-06-10T19:32:01.196Z,6.17
2023-06-10T19:34:29.394Z,4.20
2023-06-10T19:36:57.552Z,5.13
2023-06-10T19:39:25.707Z,4.60
2023-06-10T19:41:53.863Z,4.53
2023-06-10T19:44:23.409Z,4.83
2023-06-10T19:46:51.605Z,3.97
2023-06-10T19:49:19.745Z,4.57
2023-06-10T19:51:50.214Z,4.40
2023-06-10T19:54:18.305Z,5.13
2023-06-10T19:56:46.436Z,4.50
2023-06-10T19:59:14.937Z,4.50
2023-06-10T20:01:44.556Z,4.23
2023-06-10T20:04:12.777Z,3.90
2023-06-10T20:06:42.161Z,4.63
2023-06-10T20:09:10.393Z,7.00
2023-06-10T20:11:38.565Z,4.50
2023-06-10T20:14:06.750Z,4.90
2023-06-10T20:16:34.965Z,4.30
2023-06-10T20:19:04.469Z,6.53
2023-06-10T20:21:32.579Z,4.30
2023-06-10T20:24:00.704Z,4.43
2023-06-10T20:26:28.942Z,4.87
2023-06-10T20:28:57.087Z,5.77
2023-06-10T20:31:27.356Z,4.37
2023-06-10T20:33:55.628Z,5.13
2023-06-10T20:36:25.107Z,4.37
2023-06-10T20:38:53.213Z,5.60
2023-06-10T20:41:22.743Z,4.87
2023-06-10T20:43:50.973Z,4.70
2023-06-10T20:46:19.213Z,5.07
2023-06-10T20:48:47.457Z,5.30
2023-06-10T20:51:15.698Z,4.40
2023-06-10T20:53:45.221Z,4.97
2023-06-10T20:56:13.419Z,5.30
2023-06-10T20:58:41.799Z,5.30
2023-06-10T21:01:10.074Z,4.90
2023-06-10T21:03:38.226Z,6.37
2023-06-10T21:06:07.100Z,6.00
2023-06-10T21:08:35.243Z,5.37
2023-06-10T21:11:04.747Z,5.30
2023-06-10T21:13:32.880Z,8.60
2023-06-10T21:16:01.166Z,5.57
2023-06-10T21:18:31.610Z,5.00
2023-06-10T21:20:59.799Z,6.20
2023-06-10T21:23:28.025Z,6.67
2023-06-10T21:25:56.179Z,5.83
2023-06-10T21:28:25.715Z,6.50
2023-06-10T21:30:53.844Z,6.93
2023-06-10T21:33:23.955Z,5.60
2023-06-10T21:35:52.155Z,6.03
2023-06-10T21:38:20.308Z,6.30
2023-06-10T21:40:48.447Z,6.30
2023-06-10T21:43:16.573Z,7.17
2023-06-10T21:45:46.144Z,5.80
2023-06-10T21:48:14.454Z,5.80
2023-06-10T21:50:42.589Z,8.87
2023-06-10T21:53:10.762Z,6.07
2023-06-10T21:55:38.868Z,5.93
2023-06-10T21:58:06.968Z,5.37
2023-06-10T22:00:35.707Z,5.63
2023-06-10T22:03:05.444Z,6.17
2023-06-10T22:05:34.135Z,6.10
2023-06-10T22:08:02.350Z,5.87
2023-06-10T22:10:30.446Z,6.03
2023-06-10T22:12:58.613Z,6.50
2023-06-10T22:15:26.933Z,6.43
2023-06-10T22:17:55.112Z,6.50
2023-06-10T22:20:24.654Z,6.53
2023-06-10T22:22:52.911Z,7.37
2023-06-10T22:25:21.056Z,8.17
2023-06-10T22:27:49.249Z,6.23
2023-06-10T22:30:17.490Z,5.73
2023-06-10T22:32:45.721Z,5.93
2023-06-10T22:35:14.119Z,5.63
2023-06-10T22:37:43.772Z,5.70
2023-06-10T22:40:12.510Z,6.10
2023-06-10T22:42:40.613Z,5.80
2023-06-10T22:45:09.464Z,5.93
2023-06-10T22:47:37.965Z,6.50
2023-06-10T22:50:06.915Z,6.23
2023-06-10T22:52:35.050Z,6.50
2023-06-10T22:55:05.708Z,5.93
2023-06-10T22:57:33.856Z,7.67
2023-06-10T23:00:01.988Z,6.60
2023-06-10T23:02:30.190Z,5.83
2023-06-10T23:04:58.416Z,5.80
2023-06-10T23:07:26.525Z,6.47
2023-06-10T23:09:54.648Z,6.20
2023-06-10T23:12:24.327Z,6.43
2023-06-10T23:14:52.474Z,5.90
2023-06-10T23:17:21.897Z,6.57
2023-06-10T23:19:51.453Z,6.90
2023-06-10T23:22:20.084Z,6.13
2023-06-10T23:24:48.734Z,6.70
2023-06-10T23:27:21.293Z,7.03
2023-06-10T23:29:59.337Z,6.43
2023-06-10T23:32:28.542Z,6.73
2023-06-10T23:34:56.997Z,6.43
2023-06-10T23:37:25.111Z,6.57
2023-06-10T23:39:55.089Z,6.73
2023-06-10T23:42:25.599Z,6.20
2023-06-10T23:44:55.200Z,6.13
2023-06-10T23:47:23.363Z,5.37
2023-06-10T23:49:51.504Z,5.83
2023-06-10T23:52:21.743Z,5.30
2023-06-10T23:54:50.060Z,5.33
2023-06-10T23:57:18.160Z,5.87
2023-06-10T23:59:46.277Z,5.70
